Time;durP1;ratioP1;P1;durP2;ratioP2;P2;SDS_P1;SDS_P2;PMS_P1;PMS_P2;Temp;Humidity;BMP_temperature;BMP_pressure;BME280_temperature;BME280_humidity;BME280_pressure;Samples;Min_cycle;Max_cycle;Signal;HPM_P1;HPM_P2
2024/02/25 00:00:22;;;;;;;3.67;1.80;;;;;;;;;;5027165;28;20387;-76
2024/02/25 00:02:47;;;;;;;4.93;1.97;;;;;;;;;;5021548;28;20197;-76
2024/02/25 00:05:13;;;;;;;6.27;1.77;;;;;;;;;;5030695;28;20275;-77
2024/02/25 00:07:39;;;;;;;5.17;1.43;;;;;;;;;;5025617;28;20194;-77
2024/02/25 00:10:06;;;;;;;3.60;1.70;;;;;;;;;;5026619;28;20277;-77
2024/02/25 00:12:32;;;;;;;3.50;1.70;;;;;;;;;;5010353;28;20190;-77
2024/02/25 00:14:58;;;;;;;4.07;1.50;;;;;;;;;;5017086;28;20212;-78
2024/02/25 00:17:23;;;;;;;4.17;1.60;;;;;;;;;;5035184;28;20186;-77
2024/02/25 00:19:48;;;;;;;4.97;1.63;;;;;;;;;;5010651;28;20604;-76
2024/02/25 00:22:14;;;;;;;5.20;1.63;;;;;;;;;;5006158;28;20189;-75
2024/02/25 00:24:39;;;;;;;4.57;1.70;;;;;;;;;;5026068;28;20275;-75
2024/02/25 00:27:05;;;;;;;4.07;1.53;;;;;;;;;;5031752;28;20221;-77
2024/02/25 00:29:30;;;;;;;4.80;1.70;;;;;;;;;;5023412;28;20197;-76
2024/02/25 00:31:56;;;;;;;5.80;1.80;;;;;;;;;;5018963;28;20186;-76
2024/02/25 00:34:21;;;;;;;3.67;1.53;;;;;;;;;;5018797;28;20237;-76
2024/02/25 00:36:48;;;;;;;2.27;1.33;;;;;;;;;;5039405;28;20201;-76
2024/02/25 00:39:17;;;;;;;6.13;1.70;;;;;;;;;;5023338;28;20209;-76
2024/02/25 00:41:43;;;;;;;4.30;1.50;;;;;;;;;;5023700;28;20871;-76
2024/02/25 00:44:09;;;;;;;3.47;1.40;;;;;;;;;;5033340;28;20181;-77
2024/02/25 00:46:34;;;;;;;4.07;1.63;;;;;;;;;;5019861;28;20212;-76
2024/02/25 00:49:00;;;;;;;2.50;1.30;;;;;;;;;;5034917;28;20198;-77
2024/02/25 00:51:26;;;;;;;5.53;1.43;;;;;;;;;;5028170;28;20186;-77
2024/02/25 00:53:52;;;;;;;3.67;1.30;;;;;;;;;;5026384;28;20218;-77
2024/02/25 00:56:17;;;;;;;1.90;1.03;;;;;;;;;;5023913;28;20611;-77
2024/02/25 00:58:43;;;;;;;2.50;1.27;;;;;;;;;;5017998;28;20210;-77
2024/02/25 01:01:14;;;;;;;3.50;1.40;;;;;;;;;;5008941;28;20221;-76
2024/02/25 01:03:44;;;;;;;2.70;1.13;;;;;;;;;;5028990;28;20647;-76
2024/02/25 01:06:10;;;;;;;3.40;1.23;;;;;;;;;;5021481;28;20552;-77
2024/02/25 01:08:38;;;;;;;1.33;0.90;;;;;;;;;;5026458;28;20187;-76
2024/02/25 01:11:10;;;;;;;2.57;1.17;;;;;;;;;;5032124;28;20657;-78
2024/02/25 01:13:35;;;;;;;3.47;1.30;;;;;;;;;;5027497;28;20214;-75
2024/02/25 01:16:05;;;;;;;2.47;0.90;;;;;;;;;;5029738;28;20538;-76
2024/02/25 01:18:31;;;;;;;1.10;0.80;;;;;;;;;;5024638;28;20265;-76
2024/02/25 01:20:57;;;;;;;3.13;1.00;;;;;;;;;;5019428;28;21871;-76
2024/02/25 01:23:22;;;;;;;2.87;1.20;;;;;;;;;;5028733;28;20213;-76
2024/02/25 01:25:48;;;;;;;2.70;0.90;;;;;;;;;;5017435;28;20204;-76
2024/02/25 01:28:13;;;;;;;2.63;1.00;;;;;;;;;;5029128;28;20197;-76
2024/02/25 01:30:39;;;;;;;2.83;1.00;;;;;;;;;;5027473;28;20263;-77
2024/02/25 01:33:05;;;;;;;2.23;1.07;;;;;;;;;;5008814;28;20406;-77
2024/02/25 01:35:30;;;;;;;1.77;0.97;;;;;;;;;;5029889;28;20202;-77
2024/02/25 01:37:56;;;;;;;2.80;1.10;;;;;;;;;;5024718;28;20276;-77
2024/02/25 01:40:21;;;;;;;1.83;0.90;;;;;;;;;;5031240;28;20206;-77
2024/02/25 01:42:47;;;;;;;1.70;0.90;;;;;;;;;;5028822;28;20543;-77
2024/02/25 01:45:14;;;;;;;2.77;0.90;;;;;;;;;;5037351;28;20192;-77
2024/02/25 01:47:40;;;;;;;2.75;1.25;;;;;;;;;;5028488;28;20186;-76
2024/02/25 01:50:06;;;;;;;2.07;0.80;;;;;;;;;;5018589;28;20204;-76
2024/02/25 01:52:31;;;;;;;1.87;0.97;;;;;;;;;;5030436;28;20526;-76
2024/02/25 01:54:57;;;;;;;3.10;1.17;;;;;;;;;;5035397;28;20215;-76
2024/02/25 01:57:23;;;;;;;4.00;0.93;;;;;;;;;;4996026;28;20521;-76
2024/02/25 01:59:49;;;;;;;3.50;1.13;;;;;;;;;;5022736;28;20273;-76
2024/02/25 02:02:15;;;;;;;2.63;1.40;;;;;;;;;;5041092;28;20764;-76
2024/02/25 02:04:41;;;;;;;6.03;1.00;;;;;;;;;;5024965;28;20296;-75
2024/02/25 02:07:09;;;;;;;4.13;1.07;;;;;;;;;;5014142;28;20220;-75
2024/02/25 02:09:34;;;;;;;1.83;0.70;;;;;;;;;;5038341;28;20628;-76
2024/02/25 02:12:00;;;;;;;3.40;1.10;;;;;;;;;;5038415;28;20206;-75
2024/02/25 02:14:26;;;;;;;1.43;0.90;;;;;;;;;;5032851;28;20605;-76
2024/02/25 02:16:52;;;;;;;1.87;0.90;;;;;;;;;;5029664;28;20656;-75
2024/02/25 02:19:17;;;;;;;1.63;1.00;;;;;;;;;;5007374;28;20228;-76
2024/02/25 02:21:43;;;;;;;3.90;2.20;;;;;;;;;;5030114;28;20253;-76
2024/02/25 02:24:08;;;;;;;5.80;1.47;;;;;;;;;;5026361;28;20215;-76
2024/02/25 02:26:34;;;;;;;3.70;1.70;;;;;;;;;;5028650;28;20239;-77
2024/02/25 02:29:00;;;;;;;5.80;2.33;;;;;;;;;;5019822;28;20645;-76
2024/02/25 02:31:25;;;;;;;2.57;1.80;;;;;;;;;;5034183;28;20244;-76
2024/02/25 02:33:52;;;;;;;3.47;1.80;;;;;;;;;;5027409;28;20206;-76
2024/02/25 02:36:18;;;;;;;2.40;1.30;;;;;;;;;;5025643;28;20190;-77
2024/02/25 02:38:43;;;;;;;1.90;1.20;;;;;;;;;;5012643;28;20438;-76
2024/02/25 02:41:10;;;;;;;1.57;1.10;;;;;;;;;;5013613;28;20190;-76
2024/02/25 02:43:36;;;;;;;1.77;1.00;;;;;;;;;;5043030;28;20218;-76
2024/02/25 02:46:02;;;;;;;1.88;1.10;;;;;;;;;;5036836;28;20210;-76
2024/02/25 02:48:27;;;;;;;3.53;1.27;;;;;;;;;;5010915;28;20656;-76
2024/02/25 02:50:53;;;;;;;3.67;1.00;;;;;;;;;;5020228;28;20191;-76
2024/02/25 02:53:19;;;;;;;6.43;1.20;;;;;;;;;;5024115;28;20210;-76
2024/02/25 02:55:46;;;;;;;2.20;1.13;;;;;;;;;;5029509;28;20190;-76
2024/02/25 02:58:11;;;;;;;8.40;1.40;;;;;;;;;;5017580;28;20190;-77
2024/02/25 03:00:37;;;;;;;2.83;1.20;;;;;;;;;;5013673;28;20189;-76
2024/02/25 03:03:02;;;;;;;3.43;1.27;;;;;;;;;;5017704;28;20186;-77
2024/02/25 03:05:28;;;;;;;5.10;1.33;;;;;;;;;;5029098;28;20187;-77
2024/02/25 03:07:53;;;;;;;1.93;1.30;;;;;;;;;;5047218;28;20635;-77
2024/02/25 03:10:20;;;;;;;2.50;1.27;;;;;;;;;;5026237;28;20187;-77
2024/02/25 03:12:47;;;;;;;1.73;1.10;;;;;;;;;;5030113;28;20276;-78
2024/02/25 03:15:12;;;;;;;1.40;1.07;;;;;;;;;;5040350;28;20244;-78
2024/02/25 03:17:42;;;;;;;2.15;1.10;;;;;;;;;;5031742;28;21422;-78
2024/02/25 03:20:08;;;;;;;4.80;1.70;;;;;;;;;;5034560;28;20234;-78
2024/02/25 03:22:35;;;;;;;4.17;1.50;;;;;;;;;;5008022;28;20197;-78
2024/02/25 03:25:02;;;;;;;3.03;1.47;;;;;;;;;;5008993;28;20277;-78
2024/02/25 03:27:29;;;;;;;4.13;1.40;;;;;;;;;;5027337;28;20205;-77
2024/02/25 03:29:55;;;;;;;4.83;1.80;;;;;;;;;;5035866;28;20186;-78
2024/02/25 03:32:21;;;;;;;6.43;1.88;;;;;;;;;;5010097;28;20630;-78
2024/02/25 03:34:46;;;;;;;5.20;1.90;;;;;;;;;;5038208;28;20285;-75
2024/02/25 03:37:12;;;;;;;4.00;1.90;;;;;;;;;;5040086;28;20193;-76
2024/02/25 03:39:37;;;;;;;4.20;1.70;;;;;;;;;;5042150;28;20633;-76
2024/02/25 03:42:03;;;;;;;1.20;1.10;;;;;;;;;;5029836;28;20197;-76
2024/02/25 03:44:29;;;;;;;3.22;1.42;;;;;;;;;;5048015;28;20498;-76
2024/02/25 03:46:54;;;;;;;4.50;1.67;;;;;;;;;;5031996;28;20193;-76
2024/02/25 03:49:21;;;;;;;2.60;1.67;;;;;;;;;;5041709;28;20522;-76
2024/02/25 03:51:46;;;;;;;2.50;1.70;;;;;;;;;;5024552;28;20182;-76
2024/02/25 03:54:12;;;;;;;3.47;1.80;;;;;;;;;;5039852;28;20217;-76
2024/02/25 03:56:37;;;;;;;2.07;1.50;;;;;;;;;;5034025;28;20203;-76
2024/02/25 03:59:04;;;;;;;2.95;1.42;;;;;;;;;;5026065;28;20190;-76
2024/02/25 04:01:29;;;;;;;3.63;1.60;;;;;;;;;;5035661;28;20712;-76
2024/02/25 04:03:55;;;;;;;2.72;1.42;;;;;;;;;;5023099;28;20189;-77
2024/02/25 04:06:20;;;;;;;1.80;1.10;;;;;;;;;;5032615;28;20292;-76
2024/02/25 04:08:46;;;;;;;1.83;1.50;;;;;;;;;;5029398;28;20454;-75
2024/02/25 04:11:11;;;;;;;3.72;1.30;;;;;;;;;;5029986;28;20676;-76
2024/02/25 04:13:37;;;;;;;3.13;1.42;;;;;;;;;;5013128;28;20649;-76
2024/02/25 04:16:02;;;;;;;3.85;1.65;;;;;;;;;;5023558;28;20192;-76
2024/02/25 04:18:28;;;;;;;2.92;1.50;;;;;;;;;;5035738;28;20287;-76
2024/02/25 04:20:54;;;;;;;3.63;1.20;;;;;;;;;;5041159;28;20198;-76
2024/02/25 04:23:21;;;;;;;2.45;1.38;;;;;;;;;;5029117;28;20190;-76
2024/02/25 04:25:46;;;;;;;2.72;1.40;;;;;;;;;;5035884;28;20189;-76
2024/02/25 04:28:12;;;;;;;1.70;1.38;;;;;;;;;;5037314;28;20201;-76
2024/02/25 04:30:37;;;;;;;3.08;1.10;;;;;;;;;;5030208;28;20254;-76
2024/02/25 04:33:03;;;;;;;2.70;1.10;;;;;;;;;;5034859;28;20240;-76
2024/02/25 04:35:29;;;;;;;2.03;1.35;;;;;;;;;;5023280;28;20681;-76
2024/02/25 04:37:54;;;;;;;4.72;1.10;;;;;;;;;;5036113;28;20185;-76
2024/02/25 04:40:19;;;;;;;3.38;1.60;;;;;;;;;;5034704;28;20193;-76
2024/02/25 04:42:45;;;;;;;1.98;1.48;;;;;;;;;;5037185;28;20284;-76
2024/02/25 04:45:11;;;;;;;1.42;1.30;;;;;;;;;;5030323;28;20194;-76
2024/02/25 04:47:36;;;;;;;2.30;1.40;;;;;;;;;;5020127;28;20311;-77
2024/02/25 04:50:03;;;;;;;1.63;1.40;;;;;;;;;;5015633;28;20210;-76
2024/02/25 04:52:29;;;;;;;2.40;1.23;;;;;;;;;;5030952;28;20272;-76
2024/02/25 04:54:54;;;;;;;1.52;1.40;;;;;;;;;;5010907;28;20306;-77
2024/02/25 04:57:20;;;;;;;2.05;1.17;;;;;;;;;;5004180;28;20193;-76
2024/02/25 04:59:46;;;;;;;1.40;1.00;;;;;;;;;;5014397;28;20193;-77
2024/02/25 05:02:12;;;;;;;1.90;1.13;;;;;;;;;;5038975;28;20196;-76
2024/02/25 05:04:42;;;;;;;3.65;1.33;;;;;;;;;;5025814;28;20197;-76
2024/02/25 05:07:08;;;;;;;1.73;1.23;;;;;;;;;;5012677;28;20649;-77
2024/02/25 05:09:33;;;;;;;3.10;1.30;;;;;;;;;;5042680;28;20214;-77
2024/02/25 05:11:59;;;;;;;1.40;1.13;;;;;;;;;;5037054;28;20865;-76
2024/02/25 05:14:24;;;;;;;1.55;1.10;;;;;;;;;;5026494;28;20222;-77
2024/02/25 05:16:51;;;;;;;3.28;1.60;;;;;;;;;;5028977;28;20495;-76
2024/02/25 05:19:17;;;;;;;1.50;1.23;;;;;;;;;;5006469;28;20713;-76
2024/02/25 05:21:43;;;;;;;2.83;1.27;;;;;;;;;;5028118;28;20266;-76
2024/02/25 05:24:09;;;;;;;1.47;1.30;;;;;;;;;;5029744;28;20190;-77
2024/02/25 05:26:34;;;;;;;1.20;1.10;;;;;;;;;;5043634;28;20190;-76
2024/02/25 05:29:00;;;;;;;2.90;1.40;;;;;;;;;;5027874;28;20269;-76
2024/02/25 05:31:26;;;;;;;2.28;1.20;;;;;;;;;;5012029;28;20277;-76
2024/02/25 05:33:51;;;;;;;2.15;1.30;;;;;;;;;;5017875;28;20280;-76
2024/02/25 05:36:17;;;;;;;1.48;1.17;;;;;;;;;;5015712;28;20194;-76
2024/02/25 05:38:43;;;;;;;2.55;1.10;;;;;;;;;;5025580;28;20269;-76
2024/02/25 05:41:12;;;;;;;1.17;1.08;;;;;;;;;;5026783;28;20196;-76
2024/02/25 05:43:37;;;;;;;2.47;0.90;;;;;;;;;;5030717;28;20196;-76
2024/02/25 05:46:03;;;;;;;2.57;0.70;;;;;;;;;;5023667;28;20191;-77
2024/02/25 05:48:29;;;;;;;1.10;0.70;;;;;;;;;;5034577;28;20709;-76
2024/02/25 05:50:54;;;;;;;1.33;0.80;;;;;;;;;;5028835;28;20182;-77
2024/02/25 05:53:20;;;;;;;1.10;0.80;;;;;;;;;;5036243;28;20756;-77
2024/02/25 05:55:47;;;;;;;1.13;0.73;;;;;;;;;;5025482;28;20190;-76
2024/02/25 05:58:13;;;;;;;0.98;0.88;;;;;;;;;;5035528;28;20205;-77
2024/02/25 06:00:39;;;;;;;1.27;0.90;;;;;;;;;;5030739;28;20251;-76
2024/02/25 06:03:04;;;;;;;1.83;0.97;;;;;;;;;;5029271;28;20660;-77
2024/02/25 06:05:30;;;;;;;2.30;1.20;;;;;;;;;;5037619;28;20652;-77
2024/02/25 06:07:59;;;;;;;1.77;1.10;;;;;;;;;;5041480;28;20745;-77
2024/02/25 06:10:24;;;;;;;2.07;1.30;;;;;;;;;;5025767;28;20198;-77
2024/02/25 06:12:50;;;;;;;1.40;0.87;;;;;;;;;;5024930;28;20529;-76
2024/02/25 06:15:17;;;;;;;2.40;1.08;;;;;;;;;;5035560;28;20229;-77
2024/02/25 06:17:42;;;;;;;3.50;1.40;;;;;;;;;;5027648;28;20268;-77
2024/02/25 06:20:10;;;;;;;2.38;1.50;;;;;;;;;;5001967;28;20741;-77
2024/02/25 06:22:36;;;;;;;2.50;1.00;;;;;;;;;;5011041;28;20669;-77
2024/02/25 06:25:04;;;;;;;1.30;1.20;;;;;;;;;;5030452;28;20185;-77
2024/02/25 06:27:35;;;;;;;2.35;1.30;;;;;;;;;;5001297;28;20716;-77
2024/02/25 06:30:01;;;;;;;3.60;1.33;;;;;;;;;;5029971;28;20201;-77
2024/02/25 06:32:27;;;;;;;1.83;1.47;;;;;;;;;;5039014;28;20202;-76
2024/02/25 06:34:52;;;;;;;2.37;1.27;;;;;;;;;;5033393;28;20253;-77
2024/02/25 06:37:18;;;;;;;1.83;1.15;;;;;;;;;;5027739;28;20198;-76
2024/02/25 06:39:43;;;;;;;2.53;1.73;;;;;;;;;;5033331;28;20194;-77
2024/02/25 06:42:08;;;;;;;2.03;1.80;;;;;;;;;;5015039;28;20197;-77
2024/02/25 06:44:34;;;;;;;2.58;1.30;;;;;;;;;;5038889;28;20613;-77
2024/02/25 06:46:59;;;;;;;3.33;1.50;;;;;;;;;;5033909;28;20244;-77
2024/02/25 06:49:27;;;;;;;2.80;1.70;;;;;;;;;;5031510;28;20190;-77
2024/02/25 06:51:54;;;;;;;3.17;2.00;;;;;;;;;;5030461;28;20190;-76
2024/02/25 06:54:20;;;;;;;2.07;1.70;;;;;;;;;;5038823;28;20687;-76
2024/02/25 06:56:45;;;;;;;3.30;1.80;;;;;;;;;;5030869;28;20186;-76
2024/02/25 06:59:11;;;;;;;1.90;1.70;;;;;;;;;;5033673;28;20587;-76
2024/02/25 07:01:36;;;;;;;1.88;1.67;;;;;;;;;;5043180;28;20220;-76
2024/02/25 07:04:02;;;;;;;2.33;1.85;;;;;;;;;;5022271;28;20261;-77
2024/02/25 07:06:27;;;;;;;2.07;1.50;;;;;;;;;;5025315;28;20201;-77
2024/02/25 07:08:53;;;;;;;3.15;1.80;;;;;;;;;;5027871;28;20190;-76
2024/02/25 07:11:20;;;;;;;2.47;1.80;;;;;;;;;;5036538;28;20345;-76
2024/02/25 07:13:46;;;;;;;2.30;2.10;;;;;;;;;;5011683;28;20211;-76
2024/02/25 07:16:12;;;;;;;3.90;1.90;;;;;;;;;;5007291;28;20647;-76
2024/02/25 07:18:38;;;;;;;2.20;2.00;;;;;;;;;;5041434;28;20237;-76
2024/02/25 07:21:06;;;;;;;3.45;2.28;;;;;;;;;;5036593;28;20189;-76
2024/02/25 07:23:32;;;;;;;4.43;2.47;;;;;;;;;;5027755;28;20247;-76
2024/02/25 07:25:58;;;;;;;2.17;1.98;;;;;;;;;;5026201;28;20185;-77
2024/02/25 07:28:24;;;;;;;2.28;2.00;;;;;;;;;;5037353;28;20190;-76
2024/02/25 07:30:50;;;;;;;2.25;1.88;;;;;;;;;;5033473;28;20213;-77
2024/02/25 07:33:15;;;;;;;2.25;1.90;;;;;;;;;;5010445;28;20236;-76
2024/02/25 07:35:41;;;;;;;1.92;1.65;;;;;;;;;;5030110;28;20194;-76
2024/02/25 07:38:06;;;;;;;2.55;1.70;;;;;;;;;;5039200;28;20204;-76
2024/02/25 07:40:33;;;;;;;2.67;1.70;;;;;;;;;;5033944;28;20205;-76
2024/02/25 07:42:58;;;;;;;3.10;1.60;;;;;;;;;;5020807;28;20706;-76
2024/02/25 07:45:24;;;;;;;2.05;1.65;;;;;;;;;;5028632;28;20198;-76
2024/02/25 07:47:49;;;;;;;2.88;1.77;;;;;;;;;;5022485;28;20190;-77
2024/02/25 07:50:15;;;;;;;1.90;1.80;;;;;;;;;;5018456;28;20195;-77
2024/02/25 07:52:40;;;;;;;2.78;2.15;;;;;;;;;;5031098;28;20276;-77
2024/02/25 07:55:06;;;;;;;1.60;1.50;;;;;;;;;;5030048;28;20210;-77
2024/02/25 07:57:33;;;;;;;1.88;1.55;;;;;;;;;;5029298;28;20197;-77
2024/02/25 07:59:59;;;;;;;3.67;2.00;;;;;;;;;;5022934;28;20194;-76
2024/02/25 08:02:25;;;;;;;2.20;2.00;;;;;;;;;;5029357;28;20560;-77
2024/02/25 08:04:50;;;;;;;2.72;1.90;;;;;;;;;;5025194;28;20269;-77
2024/02/25 08:07:16;;;;;;;2.38;2.00;;;;;;;;;;5017214;28;20202;-77
2024/02/25 08:09:41;;;;;;;3.90;2.25;;;;;;;;;;5027773;28;20199;-77
2024/02/25 08:12:06;;;;;;;2.33;1.92;;;;;;;;;;5037890;28;20211;-77
2024/02/25 08:14:33;;;;;;;2.70;2.00;;;;;;;;;;5029382;28;20218;-77
2024/02/25 08:16:58;;;;;;;1.75;1.65;;;;;;;;;;5026614;28;20214;-77
2024/02/25 08:19:23;;;;;;;3.40;1.50;;;;;;;;;;5044562;28;20348;-77
2024/02/25 08:21:49;;;;;;;1.40;1.30;;;;;;;;;;5040868;28;20197;-77
2024/02/25 08:24:16;;;;;;;2.22;1.75;;;;;;;;;;5030342;28;20189;-77
2024/02/25 08:26:41;;;;;;;1.67;1.58;;;;;;;;;;5031611;28;20612;-77
2024/02/25 08:29:06;;;;;;;2.20;1.67;;;;;;;;;;5031468;28;20230;-77
2024/02/25 08:31:33;;;;;;;1.77;1.63;;;;;;;;;;5035396;28;20251;-77
2024/02/25 08:33:58;;;;;;;2.38;2.10;;;;;;;;;;5035994;28;20627;-77
2024/02/25 08:36:24;;;;;;;1.83;1.70;;;;;;;;;;5019331;28;20186;-77
2024/02/25 08:38:49;;;;;;;2.63;1.75;;;;;;;;;;5005955;28;20273;-77
2024/02/25 08:41:14;;;;;;;2.55;2.10;;;;;;;;;;5030607;28;20418;-77
2024/02/25 08:43:41;;;;;;;2.72;2.10;;;;;;;;;;5035994;28;20233;-77
2024/02/25 08:46:06;;;;;;;2.45;1.83;;;;;;;;;;5023886;28;20201;-77
2024/02/25 08:48:31;;;;;;;2.10;1.90;;;;;;;;;;5040267;28;20562;-78
2024/02/25 08:50:57;;;;;;;3.35;2.08;;;;;;;;;;5031869;28;20756;-78
2024/02/25 08:53:22;;;;;;;2.30;2.10;;;;;;;;;;5014575;28;20182;-78
2024/02/25 08:55:48;;;;;;;2.45;1.92;;;;;;;;;;5041686;28;20681;-77
2024/02/25 08:58:13;;;;;;;2.22;1.90;;;;;;;;;;5026722;28;20627;-77
2024/02/25 09:00:40;;;;;;;2.90;2.20;;;;;;;;;;5030669;28;20256;-77
2024/02/25 09:03:06;;;;;;;4.03;2.03;;;;;;;;;;5034568;28;20182;-77
2024/02/25 09:05:31;;;;;;;3.90;2.00;;;;;;;;;;5029221;28;20223;-77
2024/02/25 09:07:59;;;;;;;5.32;2.40;;;;;;;;;;5032413;28;20212;-77
2024/02/25 09:10:24;;;;;;;2.63;2.35;;;;;;;;;;4333281;28;10000706;-77
2024/02/25 09:12:50;;;;;;;3.08;2.10;;;;;;;;;;5031224;28;20262;-77
2024/02/25 09:15:19;;;;;;;2.45;2.15;;;;;;;;;;5024100;28;20210;-77
2024/02/25 09:17:45;;;;;;;3.65;2.33;;;;;;;;;;5016355;28;20594;-77
2024/02/25 09:20:10;;;;;;;3.15;2.45;;;;;;;;;;5038871;28;20340;-78
2024/02/25 09:22:36;;;;;;;5.18;2.90;;;;;;;;;;5015604;28;20205;-77
2024/02/25 09:25:02;;;;;;;2.40;2.20;;;;;;;;;;5016496;28;20217;-76
2024/02/25 09:27:27;;;;;;;3.47;2.15;;;;;;;;;;5034899;28;20640;-77
2024/02/25 09:29:54;;;;;;;4.32;2.17;;;;;;;;;;5042641;28;20589;-77
2024/02/25 09:32:20;;;;;;;2.45;2.25;;;;;;;;;;5022758;28;20198;-77
2024/02/25 09:34:45;;;;;;;3.25;1.80;;;;;;;;;;5030555;28;20291;-77
2024/02/25 09:37:11;;;;;;;2.25;1.75;;;;;;;;;;5033539;28;20186;-77
2024/02/25 09:39:36;;;;;;;3.47;2.22;;;;;;;;;;5023616;28;20202;-77
2024/02/25 09:42:06;;;;;;;3.63;2.20;;;;;;;;;;5006887;28;20182;-77
2024/02/25 09:44:37;;;;;;;2.97;2.00;;;;;;;;;;5011746;28;20221;-77
2024/02/25 09:47:07;;;;;;;2.25;1.80;;;;;;;;;;5025668;28;20184;-77
2024/02/25 09:49:35;;;;;;;2.90;2.03;;;;;;;;;;5028752;28;20198;-77
2024/02/25 09:52:02;;;;;;;2.88;1.77;;;;;;;;;;5031862;28;20181;-77
2024/02/25 09:54:29;;;;;;;3.03;1.90;;;;;;;;;;5024157;28;20799;-77
2024/02/25 09:56:54;;;;;;;4.47;1.88;;;;;;;;;;5036916;28;20240;-77
2024/02/25 09:59:19;;;;;;;3.88;2.53;;;;;;;;;;5011212;28;20190;-77
2024/02/25 10:01:47;;;;;;;4.82;2.60;;;;;;;;;;5030386;28;20189;-77
2024/02/25 10:04:13;;;;;;;5.07;2.13;;;;;;;;;;5027757;28;20185;-77
2024/02/25 10:06:40;;;;;;;3.22;2.40;;;;;;;;;;5015532;28;20193;-77
2024/02/25 10:09:12;;;;;;;3.55;2.10;;;;;;;;;;5014332;28;20186;-77
2024/02/25 10:11:44;;;;;;;3.40;2.40;;;;;;;;;;5012028;28;20189;-77
2024/02/25 10:14:10;;;;;;;5.57;2.28;;;;;;;;;;5013797;28;20661;-77
2024/02/25 10:16:36;;;;;;;5.22;2.50;;;;;;;;;;5024735;28;20205;-77
2024/02/25 10:19:01;;;;;;;2.63;2.22;;;;;;;;;;5034509;28;20245;-77
2024/02/25 10:21:26;;;;;;;2.58;2.38;;;;;;;;;;5024382;28;20186;-77
2024/02/25 10:23:54;;;;;;;3.03;2.47;;;;;;;;;;5024900;28;20190;-77
2024/02/25 10:26:24;;;;;;;4.25;2.92;;;;;;;;;;5011591;28;20208;-77
2024/02/25 10:29:05;;;;;;;3.22;2.63;;;;;;;;;;5023484;28;20566;-77
2024/02/25 10:31:31;;;;;;;4.03;2.50;;;;;;;;;;5035473;28;20594;-77
2024/02/25 10:33:58;;;;;;;6.28;2.33;;;;;;;;;;5028125;28;20292;-77
2024/02/25 10:36:27;;;;;;;3.40;2.40;;;;;;;;;;5028770;28;20228;-77
2024/02/25 10:38:56;;;;;;;3.15;2.38;;;;;;;;;;5023230;28;20182;-77
2024/02/25 10:41:23;;;;;;;2.95;1.98;;;;;;;;;;5021068;28;20467;-77
2024/02/25 10:43:58;;;;;;;2.50;2.22;;;;;;;;;;5023880;28;20252;-77
2024/02/25 10:46:44;;;;;;;2.53;2.22;;;;;;;;;;5025784;28;20194;-77
2024/02/25 10:49:12;;;;;;;3.10;2.22;;;;;;;;;;5023260;28;20186;-77
2024/02/25 10:51:39;;;;;;;2.78;1.90;;;;;;;;;;5041778;28;20198;-77
2024/02/25 10:54:06;;;;;;;3.65;1.83;;;;;;;;;;5031824;28;20222;-78
2024/02/25 10:56:32;;;;;;;2.97;1.90;;;;;;;;;;5026207;28;20252;-77
2024/02/25 10:58:59;;;;;;;1.70;1.60;;;;;;;;;;5033669;28;20628;-77
2024/02/25 11:01:26;;;;;;;2.00;1.60;;;;;;;;;;5029287;28;20687;-77
2024/02/25 11:03:51;;;;;;;3.60;1.95;;;;;;;;;;5029004;28;20197;-77
2024/02/25 11:06:32;;;;;;;1.70;1.60;;;;;;;;;;5022409;28;20288;-77
2024/02/25 11:09:18;;;;;;;1.83;1.60;;;;;;;;;;5028071;28;20190;-77
2024/02/25 11:11:44;;;;;;;2.22;1.90;;;;;;;;;;5020950;28;20190;-77
2024/02/25 11:14:18;;;;;;;3.08;2.17;;;;;;;;;;5038568;28;20244;-77
2024/02/25 11:16:46;;;;;;;3.80;2.22;;;;;;;;;;5040776;28;20183;-77
2024/02/25 11:19:24;;;;;;;3.83;1.98;;;;;;;;;;5012107;28;20724;-78
2024/02/25 11:21:54;;;;;;;2.55;2.10;;;;;;;;;;5042091;28;20190;-77
2024/02/25 11:24:50;;;;;;;3.63;2.20;;;;;;;;;;5032200;28;20646;-77
2024/02/25 11:27:19;;;;;;;3.40;2.30;;;;;;;;;;5013236;28;20190;-77
2024/02/25 11:29:44;;;;;;;4.47;2.38;;;;;;;;;;5018648;28;20248;-77
2024/02/25 11:32:10;;;;;;;3.53;3.00;;;;;;;;;;5032292;28;20198;-77
2024/02/25 11:34:37;;;;;;;2.97;2.35;;;;;;;;;;5030776;28;20253;-77
2024/02/25 11:37:09;;;;;;;3.75;2.35;;;;;;;;;;5024977;28;20181;-78
2024/02/25 11:39:35;;;;;;;4.03;2.30;;;;;;;;;;5027782;28;20186;-77
2024/02/25 11:42:04;;;;;;;2.65;2.30;;;;;;;;;;5035826;28;20193;-78
2024/02/25 11:44:34;;;;;;;2.85;2.28;;;;;;;;;;5012444;28;20675;-78
2024/02/25 11:47:08;;;;;;;4.22;2.47;;;;;;;;;;5025724;28;20209;-78
2024/02/25 11:49:34;;;;;;;3.13;1.85;;;;;;;;;;5034971;28;20284;-78
2024/02/25 11:52:00;;;;;;;2.85;1.90;;;;;;;;;;5032200;28;20229;-78
2024/02/25 11:54:28;;;;;;;2.40;2.05;;;;;;;;;;5014485;28;20626;-78
2024/02/25 11:56:54;;;;;;;2.58;1.70;;;;;;;;;;5039827;28;20210;-79
2024/02/25 11:59:21;;;;;;;4.97;1.92;;;;;;;;;;5041127;28;20225;-78
2024/02/25 12:01:50;;;;;;;2.25;1.15;;;;;;;;;;5047429;28;20188;-75
2024/02/25 12:04:18;;;;;;;1.10;1.00;;;;;;;;;;5014029;28;20284;-78
2024/02/25 12:06:44;;;;;;;3.00;1.20;;;;;;;;;;5030012;28;20195;-78
2024/02/25 12:09:13;;;;;;;2.20;1.80;;;;;;;;;;5037643;28;20192;-78
2024/02/25 12:11:39;;;;;;;2.05;1.58;;;;;;;;;;5026787;28;20178;-78
2024/02/25 12:14:16;;;;;;;2.08;1.33;;;;;;;;;;5022191;28;20206;-78
2024/02/25 12:16:41;;;;;;;2.88;1.50;;;;;;;;;;5022454;28;20189;-78
2024/02/25 12:19:11;;;;;;;3.58;1.75;;;;;;;;;;5030271;28;20558;-78
2024/02/25 12:21:37;;;;;;;1.92;1.73;;;;;;;;;;5041740;28;20190;-78
2024/02/25 12:24:06;;;;;;;2.35;1.77;;;;;;;;;;5034914;28;20183;-77
2024/02/25 12:26:52;;;;;;;2.78;2.03;;;;;;;;;;5034107;28;20201;-78
2024/02/25 12:29:19;;;;;;;2.70;2.22;;;;;;;;;;5021757;28;20190;-78
2024/02/25 12:31:44;;;;;;;2.05;1.67;;;;;;;;;;5023771;28;20857;-78
2024/02/25 12:34:10;;;;;;;3.75;2.22;;;;;;;;;;5026158;28;20199;-78
2024/02/25 12:36:35;;;;;;;2.75;2.30;;;;;;;;;;5009671;28;20183;-78
2024/02/25 12:39:01;;;;;;;4.47;2.13;;;;;;;;;;5028886;28;20241;-78
2024/02/25 12:41:31;;;;;;;2.78;1.90;;;;;;;;;;5031653;28;20236;-78
2024/02/25 12:43:57;;;;;;;3.03;1.92;;;;;;;;;;5028698;28;20236;-78
2024/02/25 12:46:22;;;;;;;2.63;2.15;;;;;;;;;;5016009;28;20197;-78
2024/02/25 12:48:48;;;;;;;4.45;2.10;;;;;;;;;;5029692;28;20190;-78
2024/02/25 12:51:18;;;;;;;3.20;2.55;;;;;;;;;;5029887;28;20178;-78
2024/02/25 12:53:47;;;;;;;2.63;1.77;;;;;;;;;;5038180;28;20275;-78
2024/02/25 12:56:14;;;;;;;4.38;2.30;;;;;;;;;;5025060;28;20288;-78
2024/02/25 12:58:42;;;;;;;3.15;2.25;;;;;;;;;;5015691;28;20652;-78
2024/02/25 13:01:09;;;;;;;4.43;2.63;;;;;;;;;;5036883;28;20182;-78
2024/02/25 13:03:35;;;;;;;3.08;2.03;;;;;;;;;;5030864;28;20560;-78
2024/02/25 13:06:01;;;;;;;2.78;2.20;;;;;;;;;;5035071;28;20279;-78
2024/02/25 13:08:26;;;;;;;4.38;2.70;;;;;;;;;;5027862;28;20198;-78
2024/02/25 13:10:52;;;;;;;4.50;2.63;;;;;;;;;;5014961;28;20572;-78
2024/02/25 13:13:17;;;;;;;4.38;2.15;;;;;;;;;;5024590;28;20269;-78
2024/02/25 13:15:42;;;;;;;2.92;2.53;;;;;;;;;;5024219;28;20249;-78
2024/02/25 13:18:08;;;;;;;4.47;2.53;;;;;;;;;;5031745;28;20189;-78
2024/02/25 13:20:34;;;;;;;4.85;2.80;;;;;;;;;;5018655;28;20266;-78
2024/02/25 13:23:00;;;;;;;4.95;2.63;;;;;;;;;;5038429;28;20300;-78
2024/02/25 13:25:27;;;;;;;4.57;2.53;;;;;;;;;;5029187;28;20197;-78
2024/02/25 13:27:52;;;;;;;6.65;3.53;;;;;;;;;;5029010;28;20193;-78
2024/02/25 13:30:18;;;;;;;3.90;3.00;;;;;;;;;;5032880;28;20185;-79
2024/02/25 13:32:43;;;;;;;4.13;2.75;;;;;;;;;;5036167;28;20688;-78
2024/02/25 13:35:09;;;;;;;5.03;2.95;;;;;;;;;;5030733;28;20214;-78
2024/02/25 13:37:34;;;;;;;3.80;2.58;;;;;;;;;;5030619;28;20514;-78
2024/02/25 13:40:00;;;;;;;3.38;2.63;;;;;;;;;;5032982;28;20648;-78
2024/02/25 13:42:26;;;;;;;3.00;2.70;;;;;;;;;;5030680;28;21371;-78
2024/02/25 13:44:51;;;;;;;4.10;2.45;;;;;;;;;;5031858;28;20193;-78
2024/02/25 13:47:17;;;;;;;4.47;2.67;;;;;;;;;;5034466;28;20182;-78
2024/02/25 13:49:42;;;;;;;6.32;2.60;;;;;;;;;;5025205;28;20614;-78
2024/02/25 13:52:08;;;;;;;2.83;2.20;;;;;;;;;;5038916;28;20562;-78
2024/02/25 13:54:33;;;;;;;4.00;2.20;;;;;;;;;;5025988;28;20217;-78
2024/02/25 13:56:59;;;;;;;3.75;2.40;;;;;;;;;;5026386;28;20198;-78
2024/02/25 13:59:25;;;;;;;3.08;2.20;;;;;;;;;;5013548;28;20666;-78
2024/02/25 14:01:51;;;;;;;3.45;2.08;;;;;;;;;;5041042;28;20256;-78
2024/02/25 14:04:19;;;;;;;4.10;2.28;;;;;;;;;;5030747;28;20200;-77
2024/02/25 14:06:45;;;;;;;4.13;1.83;;;;;;;;;;5018172;28;20174;-78
2024/02/25 14:09:14;;;;;;;3.45;1.80;;;;;;;;;;5022349;28;20190;-78
2024/02/25 14:11:40;;;;;;;3.13;2.20;;;;;;;;;;5032948;28;20719;-77
2024/02/25 14:14:05;;;;;;;3.95;2.20;;;;;;;;;;5029736;28;20681;-78
2024/02/25 14:16:31;;;;;;;4.40;2.33;;;;;;;;;;5028617;28;20285;-78
2024/02/25 14:19:00;;;;;;;2.80;2.30;;;;;;;;;;5043261;28;20226;-78
2024/02/25 14:21:25;;;;;;;4.32;2.35;;;;;;;;;;5034982;28;20186;-78
2024/02/25 14:23:50;;;;;;;3.70;2.38;;;;;;;;;;5033720;28;20507;-78
2024/02/25 14:26:16;;;;;;;4.57;2.28;;;;;;;;;;5023288;28;20190;-78
2024/02/25 14:28:41;;;;;;;4.97;2.50;;;;;;;;;;5014953;28;20212;-78
2024/02/25 14:31:07;;;;;;;3.35;2.50;;;;;;;;;;5033844;28;20190;-78
2024/02/25 14:33:32;;;;;;;2.83;2.08;;;;;;;;;;5032774;28;20190;-78
2024/02/25 14:36:00;;;;;;;3.05;2.53;;;;;;;;;;5029260;28;20268;-78
2024/02/25 14:38:26;;;;;;;3.22;2.40;;;;;;;;;;5012534;28;20666;-78